الصفحة الرئيسية
METAR-TAF:

METAR-TAF

مطار :

كانو, نيجيريا

دائرة عرض: 12-03N, خط طول: 008-32E, ارتفاع: 476 متر

مراقبة الطقس الحالي

تاريخ ووقت الإصدار 19ساعات و 11 دقيقة قبل الساعة 18:00UTC
ريح 4 عقدة من الغرب/الجنوب الغربي
درجة الحرارة 24°درجة مئوية
الرطوبة 83%
ضغط 1014 hPa
الرؤية 10 كم أو أكثر
غيوم قليلة على ارتفاع 900 قدم

METAR: DNKN 191800Z 25004KT 9999 FEW009 24/21 Q1014 NOSIG

زمن: 14:11 (13:11 UTC)


TAF: مفقودة

أرصاد الطقس والتوقعات من أكثر من 4000 مطار (تقارير الطقس للمطار METAR والتنبؤ بالطقس بالمطارTAF).

المحطات المتاحة هي النقط الصفراء والحمراء على الخريطة.

حرك المؤشر فوق النقطة لمعرفة اسم المحطة.

ثم انقر لمعرفة أرصاد وتوقعات الطقس.

لتغيير الخارطة: اضغط على الأزرار الخضراء مع رمز الصليب الأسود للتكبير. على الزر الأخضر مع شرطة للتصغير، أو على الأسهم الخضراء للخرائط المجاورة.


METAR-TAF: